sensor_id;sensor_type;location;lat;lon;timestamp;pressure;altitude;pressure_sealevel;temperature;humidity
48614;BME280;34408;51.426;5.444;2024-03-22T00:01:49;102099.75;;;12.63;66.59
48614;BME280;34408;51.426;5.444;2024-03-22T00:04:16;102097.25;;;12.62;66.73
48614;BME280;34408;51.426;5.444;2024-03-22T00:06:46;102093.72;;;12.61;66.50
48614;BME280;34408;51.426;5.444;2024-03-22T00:09:13;102091.44;;;12.58;66.89
48614;BME280;34408;51.426;5.444;2024-03-22T00:11:40;102085.84;;;12.60;66.62
48614;BME280;34408;51.426;5.444;2024-03-22T00:14:07;102069.22;;;12.50;66.85
48614;BME280;34408;51.426;5.444;2024-03-22T00:16:34;102080.84;;;12.57;66.86
48614;BME280;34408;51.426;5.444;2024-03-22T00:19:01;102081.28;;;12.60;67.03
48614;BME280;34408;51.426;5.444;2024-03-22T00:21:29;102083.97;;;12.60;67.24
48614;BME280;34408;51.426;5.444;2024-03-22T00:23:54;102083.13;;;12.60;67.31
48614;BME280;34408;51.426;5.444;2024-03-22T00:26:21;102076.09;;;12.59;67.12
48614;BME280;34408;51.426;5.444;2024-03-22T00:28:47;102086.88;;;12.59;67.10
48614;BME280;34408;51.426;5.444;2024-03-22T00:31:14;102076.50;;;12.56;67.48
48614;BME280;34408;51.426;5.444;2024-03-22T00:33:41;102084.16;;;12.59;67.66
48614;BME280;34408;51.426;5.444;2024-03-22T00:36:10;102070.06;;;12.50;67.81
48614;BME280;34408;51.426;5.444;2024-03-22T00:38:36;102086.88;;;12.59;67.73
48614;BME280;34408;51.426;5.444;2024-03-22T00:41:03;102073.38;;;12.59;67.89
48614;BME280;34408;51.426;5.444;2024-03-22T00:43:29;102060.94;;;12.58;67.83
48614;BME280;34408;51.426;5.444;2024-03-22T00:45:56;102061.75;;;12.58;67.60
48614;BME280;34408;51.426;5.444;2024-03-22T00:48:22;102061.75;;;12.58;67.86
48614;BME280;34408;51.426;5.444;2024-03-22T00:50:48;102052.00;;;12.57;67.52
48614;BME280;34408;51.426;5.444;2024-03-22T00:53:17;102048.50;;;12.57;67.66
48614;BME280;34408;51.426;5.444;2024-03-22T00:55:43;102036.25;;;12.54;67.58
48614;BME280;34408;51.426;5.444;2024-03-22T00:58:09;102026.50;;;12.53;67.48
48614;BME280;34408;51.426;5.444;2024-03-22T01:00:35;102019.03;;;12.49;67.54
48614;BME280;34408;51.426;5.444;2024-03-22T01:03:03;102021.53;;;12.57;67.75
48614;BME280;34408;51.426;5.444;2024-03-22T01:05:29;102019.66;;;12.57;67.75
48614;BME280;34408;51.426;5.444;2024-03-22T01:07:56;102005.34;;;12.57;67.68
48614;BME280;34408;51.426;5.444;2024-03-22T01:10:23;102013.44;;;12.57;67.93
48614;BME280;34408;51.426;5.444;2024-03-22T01:12:50;102009.91;;;12.56;67.87
48614;BME280;34408;51.426;5.444;2024-03-22T01:15:16;102001.81;;;12.56;67.53
48614;BME280;34408;51.426;5.444;2024-03-22T01:17:43;102003.25;;;12.59;67.83
48614;BME280;34408;51.426;5.444;2024-03-22T01:20:10;101998.06;;;12.57;67.91
48614;BME280;34408;51.426;5.444;2024-03-22T01:22:37;101985.44;;;12.58;67.83
48614;BME280;34408;51.426;5.444;2024-03-22T01:25:03;101983.75;;;12.57;67.39
48614;BME280;34408;51.426;5.444;2024-03-22T01:27:31;101974.22;;;12.54;67.81
48614;BME280;34408;51.426;5.444;2024-03-22T01:29:57;101971.09;;;12.57;67.75
48614;BME280;34408;51.426;5.444;2024-03-22T01:32:24;101977.34;;;12.58;67.71
48614;BME280;34408;51.426;5.444;2024-03-22T01:34:50;101973.81;;;12.57;67.72
48614;BME280;34408;51.426;5.444;2024-03-22T01:37:17;101991.03;;;12.56;68.19
48614;BME280;34408;51.426;5.444;2024-03-22T01:39:43;101977.34;;;12.58;67.91
48614;BME280;34408;51.426;5.444;2024-03-22T01:42:09;101977.53;;;12.56;67.89
48614;BME280;34408;51.426;5.444;2024-03-22T01:44:37;101978.38;;;12.57;68.19
48614;BME280;34408;51.426;5.444;2024-03-22T01:47:04;101970.28;;;12.57;67.87
48614;BME280;34408;51.426;5.444;2024-03-22T01:49:30;101957.84;;;12.56;67.96
48614;BME280;34408;51.426;5.444;2024-03-22T01:51:57;101952.44;;;12.56;67.54
48614;BME280;34408;51.426;5.444;2024-03-22T01:54:23;101955.97;;;12.56;67.83
48614;BME280;34408;51.426;5.444;2024-03-22T01:56:50;101957.84;;;12.56;67.99
48614;BME280;34408;51.426;5.444;2024-03-22T01:59:16;101959.09;;;12.53;67.45
48614;BME280;34408;51.426;5.444;2024-03-22T02:01:45;101950.16;;;12.53;67.89
48614;BME280;34408;51.426;5.444;2024-03-22T02:04:11;101958.66;;;12.56;67.65
48614;BME280;34408;51.426;5.444;2024-03-22T02:06:40;101948.91;;;12.55;67.93
48614;BME280;34408;51.426;5.444;2024-03-22T02:09:06;101946.44;;;12.54;67.74
48614;BME280;34408;51.426;5.444;2024-03-22T02:11:36;101958.03;;;12.54;67.76
48614;BME280;34408;51.426;5.444;2024-03-22T02:14:03;101951.81;;;12.54;68.13
48614;BME280;34408;51.426;5.444;2024-03-22T02:16:30;101947.47;;;12.46;67.94
48614;BME280;34408;51.426;5.444;2024-03-22T02:18:57;101953.69;;;12.53;68.04
48614;BME280;34408;51.426;5.444;2024-03-22T02:21:24;101950.16;;;12.53;67.79
48614;BME280;34408;51.426;5.444;2024-03-22T02:23:51;101939.38;;;12.53;68.17
48614;BME280;34408;51.426;5.444;2024-03-22T02:26:18;101940.63;;;12.50;67.57
48614;BME280;34408;51.426;5.444;2024-03-22T02:28:44;101938.97;;;12.49;68.23
48614;BME280;34408;51.426;5.444;2024-03-22T02:31:11;101922.16;;;12.47;67.70
48614;BME280;34408;51.426;5.444;2024-03-22T02:33:36;101932.31;;;12.52;67.91
48614;BME280;34408;51.426;5.444;2024-03-22T02:36:04;101939.59;;;12.51;67.92
48614;BME280;34408;51.426;5.444;2024-03-22T02:38:30;101940.41;;;12.52;67.67
48614;BME280;34408;51.426;5.444;2024-03-22T02:40:58;101938.75;;;12.51;67.74
48614;BME280;34408;51.426;5.444;2024-03-22T02:43:24;101934.19;;;12.51;68.14
48614;BME280;34408;51.426;5.444;2024-03-22T02:45:51;101936.88;;;12.51;68.41
48614;BME280;34408;51.426;5.444;2024-03-22T02:48:17;101910.56;;;12.40;68.03
48614;BME280;34408;51.426;5.444;2024-03-22T02:50:44;101936.06;;;12.51;68.51
48614;BME280;34408;51.426;5.444;2024-03-22T02:53:11;101929.00;;;12.50;67.99
48614;BME280;34408;51.426;5.444;2024-03-22T02:55:39;101926.31;;;12.50;67.97
48614;BME280;34408;51.426;5.444;2024-03-22T02:58:07;101913.66;;;12.50;68.11
48614;BME280;34408;51.426;5.444;2024-03-22T03:00:35;101908.47;;;12.49;68.15
48614;BME280;34408;51.426;5.444;2024-03-22T03:03:02;101895.59;;;12.51;68.01
48614;BME280;34408;51.426;5.444;2024-03-22T03:05:29;101885.03;;;12.49;68.09
48614;BME280;34408;51.426;5.444;2024-03-22T03:07:54;101872.38;;;12.50;67.87
48614;BME280;34408;51.426;5.444;2024-03-22T03:10:21;101867.81;;;12.50;67.70
48614;BME280;34408;51.426;5.444;2024-03-22T03:12:47;101875.06;;;12.50;67.95
48614;BME280;34408;51.426;5.444;2024-03-22T03:15:16;101845.63;;;12.42;68.04
48614;BME280;34408;51.426;5.444;2024-03-22T03:17:42;101862.44;;;12.50;67.92
48614;BME280;34408;51.426;5.444;2024-03-22T03:20:10;101873.22;;;12.50;67.77
48614;BME280;34408;51.426;5.444;2024-03-22T03:22:39;101869.69;;;12.50;68.28
48614;BME280;34408;51.426;5.444;2024-03-22T03:25:06;101864.50;;;12.48;68.40
48614;BME280;34408;51.426;5.444;2024-03-22T03:27:32;101862.63;;;12.49;68.19
48614;BME280;34408;51.426;5.444;2024-03-22T03:29:59;101861.81;;;12.48;68.57
48614;BME280;34408;51.426;5.444;2024-03-22T03:32:26;101857.44;;;12.47;68.62
48614;BME280;34408;51.426;5.444;2024-03-22T03:34:54;101855.78;;;12.46;68.11
48614;BME280;34408;51.426;5.444;2024-03-22T03:37:20;101851.22;;;12.47;68.09
48614;BME280;34408;51.426;5.444;2024-03-22T03:39:47;101830.91;;;12.37;68.26
48614;BME280;34408;51.426;5.444;2024-03-22T03:42:13;101837.97;;;12.45;68.17
48614;BME280;34408;51.426;5.444;2024-03-22T03:44:39;101831.75;;;12.45;68.05
48614;BME280;34408;51.426;5.444;2024-03-22T03:47:07;101832.78;;;12.44;68.07
48614;BME280;34408;51.426;5.444;2024-03-22T03:49:35;101827.38;;;12.44;68.11
48614;BME280;34408;51.426;5.444;2024-03-22T03:52:01;101830.09;;;12.44;68.07
48614;BME280;34408;51.426;5.444;2024-03-22T03:54:28;101797.53;;;12.32;68.04
48614;BME280;34408;51.426;5.444;2024-03-22T03:56:54;101813.28;;;12.42;68.32
48614;BME280;34408;51.426;5.444;2024-03-22T03:59:21;101824.69;;;12.44;67.84
48614;BME280;34408;51.426;5.444;2024-03-22T04:01:47;101808.94;;;12.41;67.79
48614;BME280;34408;51.426;5.444;2024-03-22T04:04:14;101818.88;;;12.40;67.89
48614;BME280;34408;51.426;5.444;2024-03-22T04:06:43;101814.31;;;12.41;68.27
48614;BME280;34408;51.426;5.444;2024-03-22T04:09:10;101807.28;;;12.39;67.84
48614;BME280;34408;51.426;5.444;2024-03-22T04:11:36;101812.66;;;12.39;68.15
48614;BME280;34408;51.426;5.444;2024-03-22T04:14:03;101811.00;;;12.38;68.25
48614;BME280;34408;51.426;5.444;2024-03-22T04:16:29;101811.00;;;12.38;67.98
48614;BME280;34408;51.426;5.444;2024-03-22T04:18:57;101813.09;;;12.36;67.99
48614;BME280;34408;51.426;5.444;2024-03-22T04:21:22;101813.91;;;12.37;67.77
48614;BME280;34408;51.426;5.444;2024-03-22T04:23:51;101817.66;;;12.36;68.36
48614;BME280;34408;51.426;5.444;2024-03-22T04:26:17;101814.13;;;12.35;68.17
48614;BME280;34408;51.426;5.444;2024-03-22T04:28:44;101795.47;;;12.27;68.24
48614;BME280;34408;51.426;5.444;2024-03-22T04:31:09;101813.28;;;12.35;68.01
48614;BME280;34408;51.426;5.444;2024-03-22T04:33:37;101816.00;;;12.35;68.58
48614;BME280;34408;51.426;5.444;2024-03-22T04:36:03;101810.59;;;12.35;68.46
48614;BME280;34408;51.426;5.444;2024-03-22T04:38:31;101806.03;;;12.35;68.19
48614;BME280;34408;51.426;5.444;2024-03-22T04:40:59;101804.16;;;12.36;68.36
48614;BME280;34408;51.426;5.444;2024-03-22T04:43:25;101806.03;;;12.35;68.26
48614;BME280;34408;51.426;5.444;2024-03-22T04:45:52;101806.03;;;12.35;68.27
48614;BME280;34408;51.426;5.444;2024-03-22T04:48:20;101814.97;;;12.36;68.18
48614;BME280;34408;51.426;5.444;2024-03-22T04:50:46;101815.16;;;12.34;68.05
48614;BME280;34408;51.426;5.444;2024-03-22T04:53:15;101812.47;;;12.34;68.05
48614;BME280;34408;51.426;5.444;2024-03-22T04:55:42;101801.69;;;12.34;68.58
48614;BME280;34408;51.426;5.444;2024-03-22T04:58:13;101794.44;;;12.35;68.12
48614;BME280;34408;51.426;5.444;2024-03-22T05:00:40;101794.63;;;12.33;68.17
48614;BME280;34408;51.426;5.444;2024-03-22T05:03:06;101797.34;;;12.33;68.32
48614;BME280;34408;51.426;5.444;2024-03-22T05:05:33;101800.03;;;12.33;68.12
48614;BME280;34408;51.426;5.444;2024-03-22T05:08:00;101785.72;;;12.33;68.50
48614;BME280;34408;51.426;5.444;2024-03-22T05:10:27;101792.16;;;12.32;68.33
48614;BME280;34408;51.426;5.444;2024-03-22T05:12:54;101785.94;;;12.31;68.43
48614;BME280;34408;51.426;5.444;2024-03-22T05:15:21;101780.53;;;12.31;68.43
48614;BME280;34408;51.426;5.444;2024-03-22T05:17:48;101777.84;;;12.31;67.98
48614;BME280;34408;51.426;5.444;2024-03-22T05:20:14;101785.53;;;12.28;68.35
48614;BME280;34408;51.426;5.444;2024-03-22T05:22:42;101778.06;;;12.30;68.52
48614;BME280;34408;51.426;5.444;2024-03-22T05:25:08;101770.19;;;12.28;68.13
48614;BME280;34408;51.426;5.444;2024-03-22T05:27:35;101771.00;;;12.29;68.34
48614;BME280;34408;51.426;5.444;2024-03-22T05:30:02;101777.44;;;12.28;68.13
48614;BME280;34408;51.426;5.444;2024-03-22T05:32:31;101785.53;;;12.28;68.18
48614;BME280;34408;51.426;5.444;2024-03-22T05:34:57;101784.91;;;12.26;68.51
48614;BME280;34408;51.426;5.444;2024-03-22T05:37:24;101771.25;;;12.14;68.36
48614;BME280;34408;51.426;5.444;2024-03-22T05:39:50;101783.25;;;12.25;68.41
48614;BME280;34408;51.426;5.444;2024-03-22T05:42:17;101778.91;;;12.24;67.91
48614;BME280;34408;51.426;5.444;2024-03-22T05:44:44;101775.38;;;12.23;68.38
48614;BME280;34408;51.426;5.444;2024-03-22T05:47:11;101764.41;;;12.18;68.38
48614;BME280;34408;51.426;5.444;2024-03-22T05:49:38;101770.41;;;12.20;68.41
48614;BME280;34408;51.426;5.444;2024-03-22T05:52:05;101773.94;;;12.21;68.02
48614;BME280;34408;51.426;5.444;2024-03-22T05:54:31;101766.66;;;12.21;68.23
48614;BME280;34408;51.426;5.444;2024-03-22T05:56:58;101769.38;;;12.21;68.31
48614;BME280;34408;51.426;5.444;2024-03-22T05:59:24;101765.84;;;12.21;68.03
48614;BME280;34408;51.426;5.444;2024-03-22T06:01:51;101766.66;;;12.21;68.20
48614;BME280;34408;51.426;5.444;2024-03-22T06:04:17;101762.31;;;12.20;67.91
48614;BME280;34408;51.426;5.444;2024-03-22T06:06:45;101767.50;;;12.22;68.23
48614;BME280;34408;51.426;5.444;2024-03-22T06:09:11;101760.03;;;12.24;67.94
48614;BME280;34408;51.426;5.444;2024-03-22T06:11:38;101736.06;;;12.02;68.13
48614;BME280;34408;51.426;5.444;2024-03-22T06:14:09;101765.41;;;12.24;67.75
48614;BME280;34408;51.426;5.444;2024-03-22T06:16:35;101771.84;;;12.23;67.77
48614;BME280;34408;51.426;5.444;2024-03-22T06:19:02;101763.16;;;12.21;67.94
48614;BME280;34408;51.426;5.444;2024-03-22T06:21:29;101766.88;;;12.20;67.65
48614;BME280;34408;51.426;5.444;2024-03-22T06:23:57;101764.19;;;12.20;68.08
48614;BME280;34408;51.426;5.444;2024-03-22T06:26:23;101757.75;;;12.21;67.94
48614;BME280;34408;51.426;5.444;2024-03-22T06:28:50;101758.78;;;12.20;67.73
48614;BME280;34408;51.426;5.444;2024-03-22T06:31:16;101770.19;;;12.22;67.57
48614;BME280;34408;51.426;5.444;2024-03-22T06:33:43;101754.03;;;12.22;67.79
48614;BME280;34408;51.426;5.444;2024-03-22T06:36:09;101759.19;;;12.23;68.04
48614;BME280;34408;51.426;5.444;2024-03-22T06:38:36;101765.63;;;12.22;67.59
48614;BME280;34408;51.426;5.444;2024-03-22T06:41:05;101761.28;;;12.21;68.03
48614;BME280;34408;51.426;5.444;2024-03-22T06:43:32;101762.09;;;12.22;67.96
48614;BME280;34408;51.426;5.444;2024-03-22T06:45:57;101762.94;;;12.22;67.54
48614;BME280;34408;51.426;5.444;2024-03-22T06:48:24;101761.91;;;12.23;67.49
48614;BME280;34408;51.426;5.444;2024-03-22T06:50:50;101764.59;;;12.23;67.44
48614;BME280;34408;51.426;5.444;2024-03-22T06:53:17;101759.41;;;12.22;67.48
48614;BME280;34408;51.426;5.444;2024-03-22T06:55:43;101755.69;;;12.16;67.50
48614;BME280;34408;51.426;5.444;2024-03-22T06:58:11;101758.38;;;12.16;67.81
48614;BME280;34408;51.426;5.444;2024-03-22T07:00:37;101761.91;;;12.17;67.67
48614;BME280;34408;51.426;5.444;2024-03-22T07:03:05;101757.34;;;12.17;68.11
48614;BME280;34408;51.426;5.444;2024-03-22T07:05:30;101768.97;;;12.18;68.04
48614;BME280;34408;51.426;5.444;2024-03-22T07:07:57;101758.38;;;12.16;67.94
48614;BME280;34408;51.426;5.444;2024-03-22T07:10:23;101744.34;;;12.01;68.36
48614;BME280;34408;51.426;5.444;2024-03-22T07:12:54;101758.22;;;12.11;67.94
48614;BME280;34408;51.426;5.444;2024-03-22T07:15:23;101754.50;;;12.12;67.83
48614;BME280;34408;51.426;5.444;2024-03-22T07:17:50;101748.84;;;12.14;68.27
48614;BME280;34408;51.426;5.444;2024-03-22T07:20:15;101755.91;;;12.15;67.88
48614;BME280;34408;51.426;5.444;2024-03-22T07:22:42;101755.91;;;12.15;67.76
48614;BME280;34408;51.426;5.444;2024-03-22T07:25:08;101760.25;;;12.16;67.87
48614;BME280;34408;51.426;5.444;2024-03-22T07:27:35;101762.94;;;12.16;67.96
48614;BME280;34408;51.426;5.444;2024-03-22T07:30:02;101761.91;;;12.17;67.55
48614;BME280;34408;51.426;5.444;2024-03-22T07:32:30;101742.47;;;12.08;68.04
48614;BME280;34408;51.426;5.444;2024-03-22T07:34:57;101762.75;;;12.17;67.74
48614;BME280;34408;51.426;5.444;2024-03-22T07:37:24;101750.34;;;12.10;67.55
48614;BME280;34408;51.426;5.444;2024-03-22T07:39:50;101765.22;;;12.19;67.60
48614;BME280;34408;51.426;5.444;2024-03-22T07:42:17;101762.75;;;12.17;67.52
48614;BME280;34408;51.426;5.444;2024-03-22T07:44:43;101757.56;;;12.16;67.41
48614;BME280;34408;51.426;5.444;2024-03-22T07:47:09;101750.75;;;12.13;67.67
48614;BME280;34408;51.426;5.444;2024-03-22T07:49:37;101756.72;;;12.15;67.71
48614;BME280;34408;51.426;5.444;2024-03-22T07:52:04;101753.00;;;12.16;67.53
48614;BME280;34408;51.426;5.444;2024-03-22T07:54:30;101748.44;;;12.17;67.71
48614;BME280;34408;51.426;5.444;2024-03-22T07:56:58;101749.25;;;12.17;67.70
48614;BME280;34408;51.426;5.444;2024-03-22T07:59:24;101735.22;;;12.09;67.65
48614;BME280;34408;51.426;5.444;2024-03-22T08:01:52;101755.06;;;12.14;67.43
48614;BME280;34408;51.426;5.444;2024-03-22T08:04:18;101746.78;;;12.16;67.23
48614;BME280;34408;51.426;5.444;2024-03-22T08:06:46;101755.88;;;12.21;67.06
48614;BME280;34408;51.426;5.444;2024-03-22T08:09:13;101750.31;;;12.16;67.41
48614;BME280;34408;51.426;5.444;2024-03-22T08:11:39;101754.66;;;12.17;67.17
48614;BME280;34408;51.426;5.444;2024-03-22T08:14:06;101754.03;;;12.22;67.12
48614;BME280;34408;51.426;5.444;2024-03-22T08:16:32;101745.72;;;12.23;66.98
48614;BME280;34408;51.426;5.444;2024-03-22T08:18:59;101755.25;;;12.32;67.40
48614;BME280;34408;51.426;5.444;2024-03-22T08:21:25;101752.75;;;12.31;66.75
48614;BME280;34408;51.426;5.444;2024-03-22T08:23:53;101754.44;;;12.25;67.29
48614;BME280;34408;51.426;5.444;2024-03-22T08:26:19;101736.00;;;12.22;67.00
48614;BME280;34408;51.426;5.444;2024-03-22T08:28:47;101747.34;;;12.37;66.56
48614;BME280;34408;51.426;5.444;2024-03-22T08:31:13;101731.22;;;12.24;66.29
48614;BME280;34408;51.426;5.444;2024-03-22T08:33:40;101746.72;;;12.35;66.91
48614;BME280;34408;51.426;5.444;2024-03-22T08:36:06;101739.91;;;12.33;66.69
48614;BME280;34408;51.426;5.444;2024-03-22T08:38:33;101729.94;;;12.33;67.02
48614;BME280;34408;51.426;5.444;2024-03-22T08:41:00;101734.50;;;12.33;66.65
48614;BME280;34408;51.426;5.444;2024-03-22T08:43:28;101729.13;;;12.33;66.47
48614;BME280;34408;51.426;5.444;2024-03-22T08:45:54;101728.06;;;12.34;66.37
48614;BME280;34408;51.426;5.444;2024-03-22T08:48:21;101728.28;;;12.32;66.78
48614;BME280;34408;51.426;5.444;2024-03-22T08:50:47;101713.59;;;12.22;66.67
48614;BME280;34408;51.426;5.444;2024-03-22T08:53:14;101734.09;;;12.29;66.33
48614;BME280;34408;51.426;5.444;2024-03-22T08:55:45;101742.59;;;12.33;67.00
48614;BME280;34408;51.426;5.444;2024-03-22T08:58:14;101740.91;;;12.38;66.64
48614;BME280;34408;51.426;5.444;2024-03-22T09:00:41;101732.84;;;12.38;66.47
48614;BME280;34408;51.426;5.444;2024-03-22T09:03:08;101735.75;;;12.37;66.48
48614;BME280;34408;51.426;5.444;2024-03-22T09:05:34;101736.78;;;12.36;66.50
48614;BME280;34408;51.426;5.444;2024-03-22T09:08:02;101733.28;;;12.29;66.42
48614;BME280;34408;51.426;5.444;2024-03-22T09:10:29;101726.84;;;12.30;66.36
48614;BME280;34408;51.426;5.444;2024-03-22T09:12:56;101742.16;;;12.43;66.11
48614;BME280;34408;51.426;5.444;2024-03-22T09:15:23;101738.00;;;12.40;65.96
48614;BME280;34408;51.426;5.444;2024-03-22T09:17:51;101727.22;;;12.47;66.01
48614;BME280;34408;51.426;5.444;2024-03-22T09:20:17;101721.00;;;12.39;66.17
48614;BME280;34408;51.426;5.444;2024-03-22T09:22:44;101726.00;;;12.36;65.71
48614;BME280;34408;51.426;5.444;2024-03-22T09:25:10;101721.66;;;12.28;66.06
48614;BME280;34408;51.426;5.444;2024-03-22T09:27:37;101722.66;;;12.41;66.28
48614;BME280;34408;51.426;5.444;2024-03-22T09:30:04;101715.78;;;12.51;65.92
48614;BME280;34408;51.426;5.444;2024-03-22T09:32:32;101719.16;;;12.40;65.86
48614;BME280;34408;51.426;5.444;2024-03-22T09:34:58;101716.44;;;12.40;65.74
48614;BME280;34408;51.426;5.444;2024-03-22T09:37:25;101715.63;;;12.39;66.10
48614;BME280;34408;51.426;5.444;2024-03-22T09:39:52;101690.31;;;12.41;66.17
48614;BME280;34408;51.426;5.444;2024-03-22T09:42:22;101701.91;;;12.48;65.91
48614;BME280;34408;51.426;5.444;2024-03-22T09:44:49;101701.06;;;12.54;65.60
48614;BME280;34408;51.426;5.444;2024-03-22T09:47:16;101700.44;;;12.52;65.37
48614;BME280;34408;51.426;5.444;2024-03-22T09:49:44;101699.56;;;12.58;65.65
48614;BME280;34408;51.426;5.444;2024-03-22T09:52:15;101703.97;;;12.90;65.09
48614;BME280;34408;51.426;5.444;2024-03-22T09:54:43;101690.13;;;12.80;64.33
48614;BME280;34408;51.426;5.444;2024-03-22T09:57:14;101687.22;;;12.82;63.83
48614;BME280;34408;51.426;5.444;2024-03-22T09:59:41;101690.84;;;13.00;63.29
48614;BME280;34408;51.426;5.444;2024-03-22T10:02:09;101699.69;;;13.21;63.09
48614;BME280;34408;51.426;5.444;2024-03-22T10:04:36;101692.31;;;13.34;62.64
48614;BME280;34408;51.426;5.444;2024-03-22T10:07:04;101697.59;;;13.48;62.26
48614;BME280;34408;51.426;5.444;2024-03-22T10:09:30;101692.53;;;13.58;61.70
48614;BME280;34408;51.426;5.444;2024-03-22T10:11:58;101689.94;;;13.70;61.61
48614;BME280;34408;51.426;5.444;2024-03-22T10:14:24;101661.28;;;13.68;61.32
48614;BME280;34408;51.426;5.444;2024-03-22T10:16:52;101683.72;;;13.87;60.70
48614;BME280;34408;51.426;5.444;2024-03-22T10:19:19;101677.03;;;13.90;60.74
48614;BME280;34408;51.426;5.444;2024-03-22T10:21:47;101674.19;;;13.85;60.75
48614;BME280;34408;51.426;5.444;2024-03-22T10:24:16;101686.94;;;13.78;61.17
48614;BME280;34408;51.426;5.444;2024-03-22T10:26:43;101693.91;;;13.67;61.41
48614;BME280;34408;51.426;5.444;2024-03-22T10:29:11;101688.19;;;13.57;61.89
48614;BME280;34408;51.426;5.444;2024-03-22T10:31:38;101666.13;;;13.35;61.85
48614;BME280;34408;51.426;5.444;2024-03-22T10:34:04;101678.19;;;13.32;62.25
48614;BME280;34408;51.426;5.444;2024-03-22T10:36:33;101677.03;;;13.22;62.52
48614;BME280;34408;51.426;5.444;2024-03-22T10:39:00;101679.13;;;13.13;63.34
48614;BME280;34408;51.426;5.444;2024-03-22T10:41:28;101673.78;;;13.07;63.24
48614;BME280;34408;51.426;5.444;2024-03-22T10:43:54;101681.50;;;13.03;63.87
48614;BME280;34408;51.426;5.444;2024-03-22T10:46:28;101675.91;;;12.98;63.53
48614;BME280;34408;51.426;5.444;2024-03-22T10:48:55;101681.53;;;12.96;64.14
48614;BME280;34408;51.426;5.444;2024-03-22T10:51:23;101675.75;;;12.93;63.89
48614;BME280;34408;51.426;5.444;2024-03-22T10:53:51;101677.00;;;12.90;64.10
48614;BME280;34408;51.426;5.444;2024-03-22T10:56:21;101673.69;;;12.88;64.54
48614;BME280;34408;51.426;5.444;2024-03-22T10:58:49;101670.81;;;12.83;64.31
48614;BME280;34408;51.426;5.444;2024-03-22T11:01:23;101664.00;;;12.81;64.41
48614;BME280;34408;51.426;5.444;2024-03-22T11:03:49;101672.06;;;12.81;64.75
48614;BME280;34408;51.426;5.444;2024-03-22T11:06:20;101667.72;;;12.80;64.84
48614;BME280;34408;51.426;5.444;2024-03-22T11:08:49;101682.69;;;12.76;64.35
48614;BME280;34408;51.426;5.444;2024-03-22T11:11:17;101648.53;;;12.63;64.61
48614;BME280;34408;51.426;5.444;2024-03-22T11:13:46;101652.47;;;12.60;64.42
48614;BME280;34408;51.426;5.444;2024-03-22T11:16:15;101674.41;;;12.70;64.81
48614;BME280;34408;51.426;5.444;2024-03-22T11:18:41;101680.84;;;12.69;64.93
48614;BME280;34408;51.426;5.444;2024-03-22T11:21:08;101673.81;;;12.68;64.75
48614;BME280;34408;51.426;5.444;2024-03-22T11:23:34;101669.44;;;12.67;65.16
48614;BME280;34408;51.426;5.444;2024-03-22T11:26:03;101665.09;;;12.66;65.02
48614;BME280;34408;51.426;5.444;2024-03-22T11:28:29;101670.72;;;12.65;64.91
48614;BME280;34408;51.426;5.444;2024-03-22T11:30:56;101671.75;;;12.64;64.99
48614;BME280;34408;51.426;5.444;2024-03-22T11:33:23;101655.34;;;12.65;65.03
48614;BME280;34408;51.426;5.444;2024-03-22T11:35:52;101664.91;;;12.61;63.86
48614;BME280;34408;51.426;5.444;2024-03-22T11:38:18;101655.41;;;12.59;64.97
48614;BME280;34408;51.426;5.444;2024-03-22T11:40:46;101647.94;;;12.54;64.83
48614;BME280;34408;51.426;5.444;2024-03-22T11:43:13;101654.78;;;12.57;65.17
48614;BME280;34408;51.426;5.444;2024-03-22T11:45:42;101636.38;;;12.47;65.01
48614;BME280;34408;51.426;5.444;2024-03-22T11:48:09;101650.03;;;12.52;65.27
48614;BME280;34408;51.426;5.444;2024-03-22T11:50:37;101645.25;;;12.54;65.13
48614;BME280;34408;51.426;5.444;2024-03-22T11:53:05;101648.78;;;12.55;65.58
48614;BME280;34408;51.426;5.444;2024-03-22T11:55:32;101637.78;;;12.56;65.47
48614;BME280;34408;51.426;5.444;2024-03-22T11:57:58;101646.69;;;12.57;65.79
48614;BME280;34408;51.426;5.444;2024-03-22T12:00:25;101634.25;;;12.56;65.51
48614;BME280;34408;51.426;5.444;2024-03-22T12:02:52;101629.69;;;12.56;65.93
48614;BME280;34408;51.426;5.444;2024-03-22T12:05:20;101620.97;;;12.54;66.06
48614;BME280;34408;51.426;5.444;2024-03-22T12:07:48;101624.50;;;12.55;65.78
48614;BME280;34408;51.426;5.444;2024-03-22T12:10:15;101624.72;;;12.53;66.13
48614;BME280;34408;51.426;5.444;2024-03-22T12:12:40;101627.19;;;12.55;66.06
48614;BME280;34408;51.426;5.444;2024-03-22T12:15:07;101622.03;;;12.53;65.80
48614;BME280;34408;51.426;5.444;2024-03-22T12:17:33;101607.72;;;12.53;65.88
48614;BME280;34408;51.426;5.444;2024-03-22T12:20:02;101609.59;;;12.52;66.10
48614;BME280;34408;51.426;5.444;2024-03-22T12:22:29;101593.25;;;12.41;66.28
48614;BME280;34408;51.426;5.444;2024-03-22T12:24:57;101596.31;;;12.51;66.09
48614;BME280;34408;51.426;5.444;2024-03-22T12:27:24;101604.19;;;12.52;66.32
48614;BME280;34408;51.426;5.444;2024-03-22T12:29:51;101596.09;;;12.52;66.18
48614;BME280;34408;51.426;5.444;2024-03-22T12:32:17;101594.22;;;12.53;66.28
48614;BME280;34408;51.426;5.444;2024-03-22T12:34:44;101594.84;;;12.55;66.65
48614;BME280;34408;51.426;5.444;2024-03-22T12:37:10;101573.75;;;12.45;66.30
48614;BME280;34408;51.426;5.444;2024-03-22T12:39:37;101577.84;;;12.54;66.64
48614;BME280;34408;51.426;5.444;2024-03-22T12:42:05;101578.88;;;12.53;66.65
48614;BME280;34408;51.426;5.444;2024-03-22T12:44:32;101572.06;;;12.51;66.32
48614;BME280;34408;51.426;5.444;2024-03-22T12:46:58;101572.88;;;12.51;66.79
48614;BME280;34408;51.426;5.444;2024-03-22T12:49:25;101577.44;;;12.51;66.60